createdAt,value
2016-12-22T00:00:44.774Z,980.02
2016-12-22T00:01:44.766Z,980.07
2016-12-22T00:02:44.766Z,980.06
2016-12-22T00:03:44.762Z,980.03
2016-12-22T00:04:44.759Z,980.04
2016-12-22T00:05:44.754Z,980.03
2016-12-22T00:06:44.751Z,980.04
2016-12-22T00:07:44.746Z,980.03
2016-12-22T00:08:44.743Z,980.09
2016-12-22T00:09:44.739Z,980.07
2016-12-22T00:10:44.734Z,980.09
2016-12-22T00:11:44.731Z,980.05
2016-12-22T00:12:44.719Z,980.06
2016-12-22T00:13:44.719Z,980.08
2016-12-22T00:14:44.711Z,980.08
2016-12-22T00:15:44.707Z,980.08
2016-12-22T00:16:44.703Z,980.04
2016-12-22T00:17:44.703Z,980.05
2016-12-22T00:18:44.699Z,980.06
2016-12-22T00:19:44.695Z,980.12
2016-12-22T00:20:44.691Z,980.09
2016-12-22T00:21:44.687Z,980.07
2016-12-22T00:22:44.683Z,980.08
2016-12-22T00:23:44.675Z,980.08
2016-12-22T00:24:44.668Z,980.1
2016-12-22T00:25:44.664Z,980.07
2016-12-22T00:26:44.659Z,980.07
2016-12-22T00:27:44.656Z,980.06
2016-12-22T00:28:44.656Z,980.03
2016-12-22T00:29:44.652Z,980.03
2016-12-22T00:30:44.648Z,980.02
2016-12-22T00:31:44.643Z,980
2016-12-22T00:32:44.639Z,980
2016-12-22T00:33:44.636Z,980.03
2016-12-22T00:34:44.627Z,980.05
2016-12-22T00:35:44.623Z,980.07
2016-12-22T00:36:44.616Z,980.08
2016-12-22T00:37:44.616Z,980.07
2016-12-22T00:38:44.608Z,980.09
2016-12-22T00:39:44.608Z,980.13
2016-12-22T00:40:44.604Z,980.09
2016-12-22T00:41:44.596Z,980.09
2016-12-22T00:42:44.592Z,980.09
2016-12-22T00:43:44.596Z,980.08
2016-12-22T00:44:44.589Z,980.08
2016-12-22T00:45:44.580Z,980.09
2016-12-22T00:46:44.576Z,980.09
2016-12-22T00:47:44.572Z,980.08
2016-12-22T00:48:44.568Z,980.09
2016-12-22T00:49:44.560Z,980.09
2016-12-22T00:50:44.557Z,980.07
2016-12-22T00:51:44.552Z,980.09
2016-12-22T00:52:44.553Z,980.11
2016-12-22T00:53:44.545Z,980.1
2016-12-22T00:54:44.544Z,980.09
2016-12-22T00:55:44.541Z,980.09
2016-12-22T00:56:44.537Z,980.08
2016-12-22T00:57:44.528Z,980.14
2016-12-22T00:58:44.524Z,980.15
2016-12-22T00:59:44.521Z,980.17
2016-12-22T01:00:44.513Z,980.14
2016-12-22T01:01:44.516Z,980.17
2016-12-22T01:02:44.505Z,980.15
2016-12-22T01:03:44.505Z,980.16
2016-12-22T01:04:44.501Z,980.16
2016-12-22T01:05:44.497Z,980.19
2016-12-22T01:06:44.493Z,980.2
2016-12-22T01:07:44.489Z,980.15
2016-12-22T01:08:44.485Z,980.16
2016-12-22T01:09:44.477Z,980.15
2016-12-22T01:10:44.474Z,980.16
2016-12-22T01:11:44.465Z,980.14
2016-12-22T01:12:44.462Z,980.16
2016-12-22T01:13:44.458Z,980.16
2016-12-22T01:14:44.454Z,980.17
2016-12-22T01:15:44.453Z,980.17
2016-12-22T01:16:44.449Z,980.15
2016-12-22T01:17:44.445Z,980.19
2016-12-22T01:18:44.442Z,980.2
2016-12-22T01:19:44.438Z,980.18
2016-12-22T01:20:44.430Z,980.27
2016-12-22T01:21:44.422Z,980.26
2016-12-22T01:22:44.418Z,980.26
2016-12-22T01:23:44.415Z,980.22
2016-12-22T01:24:44.410Z,980.3
2016-12-22T01:25:44.406Z,980.28
2016-12-22T01:26:44.406Z,980.28
2016-12-22T01:27:44.402Z,980.32
2016-12-22T01:28:44.398Z,980.35
2016-12-22T01:29:44.394Z,980.37
2016-12-22T01:30:44.390Z,980.35
2016-12-22T01:31:44.382Z,980.36
2016-12-22T01:32:44.383Z,980.32
2016-12-22T01:33:44.374Z,980.38
2016-12-22T01:34:44.370Z,980.36
2016-12-22T01:35:44.367Z,980.38
2016-12-22T01:36:44.366Z,980.41
2016-12-22T01:37:44.358Z,980.42
2016-12-22T01:38:44.354Z,980.46
2016-12-22T01:39:44.350Z,980.43
2016-12-22T01:40:44.346Z,980.45
2016-12-22T01:41:44.348Z,980.47
2016-12-22T01:42:44.335Z,980.49
2016-12-22T01:43:44.331Z,980.48
2016-12-22T01:44:44.327Z,980.45
2016-12-22T01:45:44.323Z,980.48
2016-12-22T01:46:44.319Z,980.5
2016-12-22T01:47:44.315Z,980.54
2016-12-22T01:48:44.310Z,980.53
2016-12-22T01:49:44.307Z,980.57
2016-12-22T01:50:44.303Z,980.59
2016-12-22T01:51:44.295Z,980.58
2016-12-22T01:52:44.291Z,980.58
2016-12-22T01:53:44.287Z,980.59
2016-12-22T01:54:44.287Z,980.59
2016-12-22T01:55:44.279Z,980.54
2016-12-22T01:56:44.275Z,980.59
2016-12-22T01:57:44.271Z,980.56
2016-12-22T01:58:44.267Z,980.55
2016-12-22T01:59:44.264Z,980.59
2016-12-22T02:00:44.259Z,980.57
2016-12-22T02:01:44.252Z,980.59
2016-12-22T02:02:44.251Z,980.58
2016-12-22T02:03:44.247Z,980.59
2016-12-22T02:04:44.245Z,980.56
2016-12-22T02:05:44.239Z,980.59
2016-12-22T02:06:44.231Z,980.59
2016-12-22T02:07:44.229Z,980.58
2016-12-22T02:08:44.220Z,980.59
2016-12-22T02:09:44.216Z,980.6
2016-12-22T02:10:44.212Z,980.55
2016-12-22T02:11:44.207Z,980.56
2016-12-22T02:12:44.208Z,980.55
2016-12-22T02:13:44.203Z,980.51
2016-12-22T02:14:44.196Z,980.57
2016-12-22T02:15:44.196Z,980.52
2016-12-22T02:16:44.188Z,980.53
2016-12-22T02:17:44.180Z,980.52
2016-12-22T02:18:44.176Z,980.55
2016-12-22T02:19:44.172Z,980.53
2016-12-22T02:20:44.168Z,980.58
2016-12-22T02:21:44.168Z,980.56
2016-12-22T02:22:44.160Z,980.55
2016-12-22T02:23:44.160Z,980.59
2016-12-22T02:24:44.156Z,980.56
2016-12-22T02:25:44.148Z,980.57
2016-12-22T02:26:44.144Z,980.52
2016-12-22T02:27:44.140Z,980.56
2016-12-22T02:28:44.137Z,980.52
2016-12-22T02:29:44.130Z,980.56
2016-12-22T02:30:44.124Z,980.57
2016-12-22T02:31:44.120Z,980.57
2016-12-22T02:32:44.120Z,980.55
2016-12-22T02:33:44.116Z,980.59
2016-12-22T02:34:44.113Z,980.61
2016-12-22T02:35:44.104Z,980.59
2016-12-22T02:36:44.100Z,980.61
2016-12-22T02:37:44.093Z,980.61
2016-12-22T02:38:44.089Z,980.62
2016-12-22T02:39:44.090Z,980.61
2016-12-22T02:40:44.081Z,980.62
2016-12-22T02:41:44.076Z,980.66
2016-12-22T02:42:44.077Z,980.62
2016-12-22T02:43:44.073Z,980.63
2016-12-22T02:44:44.068Z,980.59
2016-12-22T02:45:44.064Z,980.62
2016-12-22T02:46:44.056Z,980.65
2016-12-22T02:47:44.049Z,980.65
2016-12-22T02:48:44.044Z,980.6
2016-12-22T02:49:44.041Z,980.6
2016-12-22T02:50:44.036Z,980.61
2016-12-22T02:51:44.032Z,980.62
2016-12-22T02:52:44.032Z,980.62
2016-12-22T02:53:44.028Z,980.61
2016-12-22T02:54:44.024Z,980.61
2016-12-22T02:55:44.020Z,980.6
2016-12-22T02:56:44.016Z,980.6
2016-12-22T02:57:44.008Z,980.56
2016-12-22T02:58:44.000Z,980.56
2016-12-22T02:59:44.001Z,980.54
2016-12-22T03:00:43.992Z,980.56
2016-12-22T03:01:43.991Z,980.54
2016-12-22T03:02:43.988Z,980.59
2016-12-22T03:03:43.984Z,980.6
2016-12-22T03:04:43.980Z,980.58
2016-12-22T03:05:43.976Z,980.59
2016-12-22T03:06:43.972Z,980.59
2016-12-22T03:07:43.968Z,980.59
2016-12-22T03:08:43.964Z,980.59
2016-12-22T03:09:43.957Z,980.6
2016-12-22T03:10:43.952Z,980.58
2016-12-22T03:11:43.948Z,980.57
2016-12-22T03:12:43.944Z,980.55
2016-12-22T03:13:43.940Z,980.57
2016-12-22T03:14:43.936Z,980.58
2016-12-22T03:15:43.935Z,980.59
2016-12-22T03:16:43.928Z,980.58
2016-12-22T03:17:43.924Z,980.59
2016-12-22T03:18:43.920Z,980.6
2016-12-22T03:19:43.912Z,980.61
2016-12-22T03:20:43.908Z,980.63
2016-12-22T03:21:43.905Z,980.63
2016-12-22T03:22:43.900Z,980.68
2016-12-22T03:23:43.896Z,980.65
2016-12-22T03:24:43.892Z,980.66
2016-12-22T03:25:43.888Z,980.63
2016-12-22T03:26:43.884Z,980.67
2016-12-22T03:27:43.881Z,980.67
2016-12-22T03:28:43.873Z,980.69
2016-12-22T03:29:43.873Z,980.69
2016-12-22T03:30:43.867Z,980.69
2016-12-22T03:31:43.861Z,980.69
2016-12-22T03:32:43.861Z,980.72
2016-12-22T03:33:43.853Z,980.77
2016-12-22T03:34:43.848Z,980.72
2016-12-22T03:35:43.845Z,980.72
2016-12-22T03:36:43.836Z,980.74
2016-12-22T03:37:43.833Z,980.72
2016-12-22T03:38:43.828Z,980.76
2016-12-22T03:39:43.825Z,980.75
2016-12-22T03:40:43.824Z,980.73
2016-12-22T03:41:43.823Z,980.75
2016-12-22T03:42:43.816Z,980.75
2016-12-22T03:43:43.808Z,980.74
2016-12-22T03:44:43.804Z,980.72
2016-12-22T03:45:43.796Z,980.76
2016-12-22T03:46:43.792Z,980.77
2016-12-22T03:47:43.788Z,980.77
2016-12-22T03:48:43.788Z,980.74
2016-12-22T03:49:43.784Z,980.73
2016-12-22T03:50:43.780Z,980.76
2016-12-22T03:51:43.775Z,980.74
2016-12-22T03:52:43.764Z,980.79
2016-12-22T03:53:43.760Z,980.78
2016-12-22T03:54:43.756Z,980.81
2016-12-22T03:55:43.758Z,980.8
2016-12-22T03:56:43.748Z,980.85
2016-12-22T03:57:43.747Z,980.84
2016-12-22T03:58:43.744Z,980.82
2016-12-22T03:59:43.740Z,980.82
2016-12-22T04:00:43.736Z,980.81
2016-12-22T04:01:43.732Z,980.81
2016-12-22T04:02:43.728Z,980.86
2016-12-22T04:03:43.720Z,980.86
2016-12-22T04:04:43.716Z,980.87
2016-12-22T04:05:43.712Z,980.85
2016-12-22T04:06:43.708Z,980.87
2016-12-22T04:07:43.704Z,980.88
2016-12-22T04:08:43.700Z,980.88
2016-12-22T04:09:43.692Z,980.87
2016-12-22T04:10:43.689Z,980.84
2016-12-22T04:11:43.684Z,980.84
2016-12-22T04:12:43.684Z,980.83
2016-12-22T04:13:43.680Z,980.86
2016-12-22T04:14:43.673Z,980.87
2016-12-22T04:15:43.669Z,980.88
2016-12-22T04:16:43.665Z,980.89
2016-12-22T04:17:43.656Z,980.85
2016-12-22T04:18:43.653Z,980.88
2016-12-22T04:19:43.649Z,980.88
2016-12-22T04:20:43.649Z,980.9
2016-12-22T04:21:43.645Z,980.84
2016-12-22T04:22:43.641Z,980.83
2016-12-22T04:23:43.637Z,980.82
2016-12-22T04:24:43.625Z,980.83
2016-12-22T04:25:43.621Z,980.83
2016-12-22T04:26:43.617Z,980.81
2016-12-22T04:27:43.613Z,980.84
2016-12-22T04:28:43.613Z,980.84
2016-12-22T04:29:43.609Z,980.88
2016-12-22T04:30:43.605Z,980.83
2016-12-22T04:31:43.605Z,980.89
2016-12-22T04:32:43.597Z,980.9
2016-12-22T04:33:43.793Z,980.93
2016-12-22T04:34:43.585Z,980.9
2016-12-22T04:35:43.582Z,980.96
2016-12-22T04:36:43.577Z,980.94
2016-12-22T04:37:43.573Z,980.93
2016-12-22T04:38:43.570Z,980.95
2016-12-22T04:39:43.565Z,980.93
2016-12-22T04:40:43.562Z,980.92
2016-12-22T04:41:43.558Z,980.96
2016-12-22T04:42:43.553Z,980.94
2016-12-22T04:43:43.546Z,980.95
2016-12-22T04:44:43.546Z,980.98
2016-12-22T04:45:43.538Z,980.98
2016-12-22T04:46:43.534Z,980.98
2016-12-22T04:47:43.530Z,981
2016-12-22T04:48:43.525Z,981.05
2016-12-22T04:49:43.522Z,981.03
2016-12-22T04:50:43.518Z,981.08
2016-12-22T04:51:43.510Z,981.1
2016-12-22T04:52:43.510Z,981.11
2016-12-22T04:53:43.506Z,981.1
2016-12-22T04:54:43.502Z,981.1
2016-12-22T04:55:43.498Z,981.08
2016-12-22T04:56:43.490Z,981.06
2016-12-22T04:57:43.486Z,981.08
2016-12-22T04:58:43.478Z,981.06
2016-12-22T04:59:43.475Z,981.05
2016-12-22T05:00:43.471Z,981.1
2016-12-22T05:01:43.471Z,981.06
2016-12-22T05:02:43.466Z,981.05
2016-12-22T05:03:43.462Z,981.04
2016-12-22T05:04:43.459Z,981.04
2016-12-22T05:05:43.451Z,981.06
2016-12-22T05:06:43.443Z,981.06
2016-12-22T05:07:43.439Z,981.08
2016-12-22T05:08:43.435Z,981.08
2016-12-22T05:09:43.437Z,981.11
2016-12-22T05:10:43.431Z,981.09
2016-12-22T05:11:43.427Z,981.08
2016-12-22T05:12:43.423Z,981.06
2016-12-22T05:13:43.419Z,981.06
2016-12-22T05:14:43.412Z,981.06
2016-12-22T05:15:43.411Z,981.02
2016-12-22T05:16:43.400Z,981.02
2016-12-22T05:17:43.399Z,981.05
2016-12-22T05:18:43.395Z,981.05
2016-12-22T05:19:43.392Z,981.07
2016-12-22T05:20:43.387Z,981.03
2016-12-22T05:21:43.385Z,981.1
2016-12-22T05:22:43.376Z,981.09
2016-12-22T05:23:43.372Z,981.07
2016-12-22T05:24:43.368Z,981.07
2016-12-22T05:25:43.364Z,981.03
2016-12-22T05:26:43.364Z,981.06
2016-12-22T05:27:43.508Z,981.03
2016-12-22T05:28:43.352Z,981.06
2016-12-22T05:29:43.348Z,981.06
2016-12-22T05:30:43.344Z,981.05
2016-12-22T05:31:43.337Z,981.03
2016-12-22T05:32:43.335Z,981.01
2016-12-22T05:33:43.333Z,981.05
2016-12-22T05:34:43.328Z,981.05
2016-12-22T05:35:43.324Z,981.12
2016-12-22T05:36:43.316Z,981.02
2016-12-22T05:37:43.312Z,981.07
2016-12-22T05:38:43.304Z,981.06
2016-12-22T05:39:43.301Z,981.06
2016-12-22T05:40:43.301Z,981.09
2016-12-22T05:41:43.297Z,981.09
2016-12-22T05:42:43.541Z,981.11
2016-12-22T05:43:43.289Z,981.07
2016-12-22T05:44:43.285Z,981.06
2016-12-22T05:45:43.273Z,981.06
2016-12-22T05:46:43.269Z,981.03
2016-12-22T05:47:43.269Z,981.04
2016-12-22T05:48:43.265Z,981.04
2016-12-22T05:49:43.261Z,981.04
2016-12-22T05:50:43.257Z,981.06
2016-12-22T05:51:43.253Z,981.06
2016-12-22T05:52:43.249Z,981.04
2016-12-22T05:53:43.242Z,981.03
2016-12-22T05:54:43.237Z,981.02
2016-12-22T05:55:43.238Z,981
2016-12-22T05:56:43.230Z,981.02
2016-12-22T05:57:43.225Z,981.03
2016-12-22T05:58:43.222Z,981.01
2016-12-22T05:59:43.218Z,981.01
2016-12-22T06:00:43.210Z,981.02
2016-12-22T06:01:43.206Z,981
2016-12-22T06:02:43.202Z,981.02
2016-12-22T06:03:43.198Z,981.02
2016-12-22T06:04:43.198Z,981.02
2016-12-22T06:05:43.194Z,981.1
2016-12-22T06:06:43.186Z,981.05
2016-12-22T06:07:43.182Z,981.07
2016-12-22T06:08:43.174Z,981.1
2016-12-22T06:09:43.174Z,981.07
2016-12-22T06:10:43.166Z,981.1
2016-12-22T06:11:43.163Z,981.09
2016-12-22T06:12:43.414Z,981.08
2016-12-22T06:13:43.159Z,981.06
2016-12-22T06:14:43.155Z,981.05
2016-12-22T06:15:43.151Z,981.03
2016-12-22T06:16:43.147Z,981.04
2016-12-22T06:17:43.143Z,981.06
2016-12-22T06:18:43.139Z,981.12
2016-12-22T06:19:43.131Z,981.08
2016-12-22T06:20:43.123Z,981.1
2016-12-22T06:21:43.119Z,981.06
2016-12-22T06:22:43.115Z,981.07
2016-12-22T06:23:43.111Z,981.07
2016-12-22T06:24:43.114Z,981.04
2016-12-22T06:25:43.107Z,981.04
2016-12-22T06:26:43.103Z,981.1
2016-12-22T06:27:43.100Z,981.06
2016-12-22T06:28:43.095Z,981.04
2016-12-22T06:29:43.087Z,981.1
2016-12-22T06:30:43.080Z,981.08
2016-12-22T06:31:43.076Z,981.1
2016-12-22T06:32:43.072Z,981.08
2016-12-22T06:33:43.068Z,981.09
2016-12-22T06:34:43.064Z,981.1
2016-12-22T06:35:43.064Z,981.13
2016-12-22T06:36:43.059Z,981.1
2016-12-22T06:37:43.056Z,981.14
2016-12-22T06:38:43.051Z,981.15
2016-12-22T06:39:43.044Z,981.18
2016-12-22T06:40:43.036Z,981.2
2016-12-22T06:41:43.036Z,981.21
2016-12-22T06:42:43.032Z,981.23
2016-12-22T06:43:43.028Z,981.24
2016-12-22T06:44:43.024Z,981.24
2016-12-22T06:45:43.017Z,981.25
2016-12-22T06:46:43.017Z,981.24
2016-12-22T06:47:43.012Z,981.27
2016-12-22T06:48:43.009Z,981.27
2016-12-22T06:49:43.001Z,981.23
2016-12-22T06:50:42.992Z,981.24
2016-12-22T06:51:42.993Z,981.25
2016-12-22T06:52:42.989Z,981.3
2016-12-22T06:53:42.985Z,981.22
2016-12-22T06:54:42.981Z,981.26
2016-12-22T06:55:42.973Z,981.24
2016-12-22T06:56:42.969Z,981.31
2016-12-22T06:57:42.970Z,981.27
2016-12-22T06:58:42.961Z,981.26
2016-12-22T06:59:42.959Z,981.3
2016-12-22T07:00:42.950Z,981.32
2016-12-22T07:01:42.946Z,981.31
2016-12-22T07:02:42.945Z,981.33
2016-12-22T07:03:42.942Z,981.32
2016-12-22T07:04:42.938Z,981.34
2016-12-22T07:05:42.926Z,981.32
2016-12-22T07:06:42.926Z,981.3
2016-12-22T07:07:42.922Z,981.29
2016-12-22T07:08:42.918Z,981.28
2016-12-22T07:09:42.910Z,981.29
2016-12-22T07:10:42.906Z,981.3
2016-12-22T07:11:42.902Z,981.29
2016-12-22T07:12:42.902Z,981.33
2016-12-22T07:13:42.894Z,981.31
2016-12-22T07:14:42.886Z,981.29
2016-12-22T07:15:42.882Z,981.35
2016-12-22T07:16:42.882Z,981.28
2016-12-22T07:17:42.878Z,981.32
2016-12-22T07:18:42.876Z,981.32
2016-12-22T07:19:42.870Z,981.3
2016-12-22T07:20:42.862Z,981.27
2016-12-22T07:21:42.859Z,981.3
2016-12-22T07:22:42.858Z,981.29
2016-12-22T07:23:42.852Z,981.31
2016-12-22T07:24:42.843Z,981.29
2016-12-22T07:25:42.843Z,981.31
2016-12-22T07:26:42.839Z,981.3
2016-12-22T07:27:42.835Z,981.32
2016-12-22T07:28:42.831Z,981.34
2016-12-22T07:29:42.827Z,981.33
2016-12-22T07:30:42.819Z,981.33
2016-12-22T07:31:42.815Z,981.37
2016-12-22T07:32:42.811Z,981.35
2016-12-22T07:33:42.807Z,981.35
2016-12-22T07:34:42.799Z,981.39
2016-12-22T07:35:42.799Z,981.39
2016-12-22T07:36:42.795Z,981.42
2016-12-22T07:37:42.791Z,981.42
2016-12-22T07:38:42.779Z,981.42
2016-12-22T07:39:42.775Z,981.43
2016-12-22T07:40:42.776Z,981.42
2016-12-22T07:41:42.771Z,981.36
2016-12-22T07:42:42.767Z,981.39
2016-12-22T07:43:42.759Z,981.37
2016-12-22T07:44:42.755Z,981.38
2016-12-22T07:45:42.755Z,981.36
2016-12-22T07:46:42.751Z,981.4
2016-12-22T07:47:42.747Z,981.43
2016-12-22T07:48:42.743Z,981.43
2016-12-22T07:49:42.731Z,981.47
2016-12-22T07:50:42.731Z,981.47
2016-12-22T07:51:42.732Z,981.46
2016-12-22T07:52:42.723Z,981.48
2016-12-22T07:53:42.718Z,981.5
2016-12-22T07:54:42.711Z,981.49
2016-12-22T07:55:42.711Z,981.51
2016-12-22T07:56:42.706Z,981.55
2016-12-22T07:57:42.700Z,981.5
2016-12-22T07:58:42.694Z,981.57
2016-12-22T07:59:42.687Z,981.53
2016-12-22T08:00:42.687Z,981.54
2016-12-22T08:01:42.682Z,981.56
2016-12-22T08:02:42.681Z,981.52
2016-12-22T08:03:42.674Z,981.56
2016-12-22T08:04:42.672Z,981.57
2016-12-22T08:05:42.666Z,981.54
2016-12-22T08:06:42.658Z,981.61
2016-12-22T08:07:42.806Z,981.6
2016-12-22T08:08:42.650Z,981.57
2016-12-22T08:09:42.646Z,981.59
2016-12-22T08:10:42.641Z,981.6
2016-12-22T08:11:42.634Z,981.59
2016-12-22T08:12:42.630Z,981.57
2016-12-22T08:13:42.630Z,981.58
2016-12-22T08:14:42.626Z,981.63
2016-12-22T08:15:42.621Z,981.61
2016-12-22T08:16:42.613Z,981.65
2016-12-22T08:17:42.609Z,981.65
2016-12-22T08:18:42.602Z,981.66
2016-12-22T08:19:42.601Z,981.66
2016-12-22T08:20:42.597Z,981.55
2016-12-22T08:21:42.593Z,981.61
2016-12-22T08:22:42.589Z,981.63
2016-12-22T08:23:42.584Z,981.67
2016-12-22T08:24:42.581Z,981.69
2016-12-22T08:25:42.577Z,981.73
2016-12-22T08:26:42.568Z,981.75
2016-12-22T08:27:42.566Z,981.78
2016-12-22T08:28:42.560Z,981.79
2016-12-22T08:29:42.556Z,981.8
2016-12-22T08:30:42.552Z,981.77
2016-12-22T08:31:42.547Z,981.8
2016-12-22T08:32:42.543Z,981.82
2016-12-22T08:33:42.540Z,981.81
2016-12-22T08:34:42.535Z,981.85
2016-12-22T08:35:42.531Z,981.84
2016-12-22T08:36:42.527Z,981.81
2016-12-22T08:37:42.519Z,981.86
2016-12-22T08:38:42.515Z,981.86
2016-12-22T08:39:42.511Z,981.84
2016-12-22T08:40:42.507Z,981.86
2016-12-22T08:41:42.502Z,981.83
2016-12-22T08:42:42.498Z,981.83
2016-12-22T08:43:42.494Z,981.84
2016-12-22T08:44:42.490Z,981.89
2016-12-22T08:45:42.482Z,981.9
2016-12-22T08:46:42.478Z,981.91
2016-12-22T08:47:42.474Z,981.88
2016-12-22T08:48:42.470Z,981.9
2016-12-22T08:49:42.466Z,981.94
2016-12-22T08:50:42.462Z,981.89
2016-12-22T08:51:42.458Z,981.87
2016-12-22T08:52:42.454Z,981.9
2016-12-22T08:53:42.451Z,981.85
2016-12-22T08:54:42.446Z,981.86
2016-12-22T08:55:42.442Z,981.91
2016-12-22T08:56:42.438Z,981.88
2016-12-22T08:57:42.434Z,981.85
2016-12-22T08:58:42.430Z,981.88
2016-12-22T08:59:42.426Z,981.97
2016-12-22T09:00:42.418Z,981.93
2016-12-22T09:01:42.414Z,981.91
2016-12-22T09:02:42.410Z,981.95
2016-12-22T09:03:42.408Z,981.9
2016-12-22T09:04:42.402Z,981.89
2016-12-22T09:05:42.398Z,981.97
2016-12-22T09:06:42.391Z,981.96
2016-12-22T09:07:42.391Z,981.97
2016-12-22T09:08:42.387Z,981.95
2016-12-22T09:09:42.382Z,981.99
2016-12-22T09:10:42.380Z,982
2016-12-22T09:11:42.375Z,981.98
2016-12-22T09:12:42.371Z,981.99
2016-12-22T09:13:42.360Z,982
2016-12-22T09:14:42.359Z,981.99
2016-12-22T09:15:42.355Z,981.99
2016-12-22T09:16:42.356Z,981.98
2016-12-22T09:17:42.348Z,981.98
2016-12-22T09:21:52.230Z,981.93
2016-12-22T09:22:52.220Z,981.89
2016-12-22T09:23:52.220Z,981.92
2016-12-22T09:24:52.216Z,981.91
2016-12-22T09:25:52.213Z,981.92
2016-12-22T09:26:52.208Z,981.93
2016-12-22T09:27:52.200Z,981.95
2016-12-22T09:28:52.200Z,981.91
2016-12-22T09:29:52.297Z,981.9
2016-12-22T09:30:52.192Z,981.91
2016-12-22T09:31:52.189Z,981.91
2016-12-22T09:32:52.181Z,981.93
2016-12-22T09:33:52.177Z,981.89
2016-12-22T09:34:52.177Z,981.94
2016-12-22T09:35:52.174Z,981.89
2016-12-22T09:36:52.169Z,981.9
2016-12-22T09:37:52.161Z,981.89
2016-12-22T09:38:52.158Z,981.89
2016-12-22T09:39:52.155Z,981.9
2016-12-22T09:40:52.150Z,981.85
2016-12-22T09:41:52.146Z,981.85
2016-12-22T09:42:52.146Z,981.86
2016-12-22T09:43:52.138Z,981.86
2016-12-22T09:44:52.130Z,981.86
2016-12-22T09:45:52.130Z,981.87
2016-12-22T09:46:52.123Z,981.84
2016-12-22T09:47:52.122Z,981.87
2016-12-22T09:48:52.119Z,981.89
2016-12-22T09:49:52.115Z,981.87
2016-12-22T09:50:52.107Z,981.84
2016-12-22T09:51:52.107Z,981.83
2016-12-22T09:52:52.103Z,981.83
2016-12-22T09:53:52.099Z,981.84
2016-12-22T09:54:52.091Z,981.84
2016-12-22T09:55:52.087Z,981.83
2016-12-22T09:56:52.083Z,981.88
2016-12-22T09:57:52.083Z,981.84
2016-12-22T09:58:52.079Z,981.87
2016-12-22T09:59:52.072Z,981.91
2016-12-22T10:00:52.068Z,981.91
2016-12-22T10:01:52.064Z,981.9
2016-12-22T10:02:52.063Z,981.91
2016-12-22T10:03:52.060Z,981.92
2016-12-22T10:04:52.056Z,981.95
2016-12-22T10:05:52.052Z,981.96
2016-12-22T10:06:52.048Z,981.92
2016-12-22T10:07:52.053Z,981.9
2016-12-22T10:08:52.036Z,981.91
2016-12-22T10:09:52.036Z,981.92
2016-12-22T10:10:52.033Z,981.9
2016-12-22T10:11:52.029Z,981.89
2016-12-22T10:12:52.036Z,981.91
2016-12-22T10:13:52.021Z,981.94
2016-12-22T10:14:52.016Z,981.92
2016-12-22T10:15:52.013Z,981.92
2016-12-22T10:16:52.011Z,981.92
2016-12-22T10:17:52.005Z,981.9
2016-12-22T10:18:52.002Z,981.9
2016-12-22T10:19:51.998Z,981.86
2016-12-22T10:20:51.994Z,981.92
2016-12-22T10:21:51.990Z,981.86
2016-12-22T10:22:51.986Z,981.85
2016-12-22T10:23:51.978Z,981.83
2016-12-22T10:24:51.978Z,981.84
2016-12-22T10:25:51.974Z,981.84
2016-12-22T10:26:51.967Z,981.81
2016-12-22T10:27:51.966Z,981.83
2016-12-22T10:28:51.962Z,981.82
2016-12-22T10:29:51.955Z,981.83
2016-12-22T10:30:51.956Z,981.83
2016-12-22T10:31:51.951Z,981.84
2016-12-22T10:32:51.943Z,981.83
2016-12-22T10:33:51.943Z,981.84
2016-12-22T10:34:51.939Z,981.89
2016-12-22T10:35:51.936Z,981.88
2016-12-22T10:36:51.936Z,981.85
2016-12-22T10:37:51.927Z,981.84
2016-12-22T10:38:51.920Z,981.87
2016-12-22T10:39:51.923Z,981.83
2016-12-22T10:40:51.916Z,981.82
2016-12-22T10:41:51.912Z,981.78
2016-12-22T10:42:51.912Z,981.81
2016-12-22T10:43:51.908Z,981.82
2016-12-22T10:44:51.904Z,981.8
2016-12-22T10:45:51.897Z,981.77
2016-12-22T10:46:51.896Z,981.76
2016-12-22T10:47:51.892Z,981.69
2016-12-22T10:48:51.889Z,981.69
2016-12-22T10:49:51.888Z,981.68
2016-12-22T10:50:51.877Z,981.69
2016-12-22T10:51:51.877Z,981.66
2016-12-22T10:52:51.874Z,981.65
2016-12-22T10:53:51.869Z,981.63
2016-12-22T10:54:51.865Z,981.63
2016-12-22T10:55:51.861Z,981.66
2016-12-22T10:56:51.857Z,981.66
2016-12-22T10:57:51.853Z,981.66
2016-12-22T10:58:51.852Z,981.67
2016-12-22T10:59:51.842Z,981.63
2016-12-22T11:00:51.841Z,981.65
2016-12-22T11:01:51.838Z,981.66
2016-12-22T11:02:51.834Z,981.66
2016-12-22T11:03:51.826Z,981.67
2016-12-22T11:04:51.826Z,981.65
2016-12-22T11:05:51.822Z,981.64
2016-12-22T11:06:51.822Z,981.6
2016-12-22T11:07:51.818Z,981.62
2016-12-22T11:08:51.814Z,981.58
2016-12-22T11:09:51.810Z,981.6
2016-12-22T11:10:51.806Z,981.63
2016-12-22T11:11:51.803Z,981.59
2016-12-22T11:12:51.798Z,981.64
2016-12-22T11:13:51.795Z,981.62
2016-12-22T11:14:51.791Z,981.68
2016-12-22T11:15:51.783Z,981.67
2016-12-22T11:16:51.783Z,981.68
2016-12-22T11:17:51.775Z,981.68
2016-12-22T11:18:51.775Z,981.67
2016-12-22T11:19:51.767Z,981.65
2016-12-22T11:20:51.771Z,981.62
2016-12-22T11:21:51.767Z,981.63
2016-12-22T11:22:51.763Z,981.59
2016-12-22T11:23:51.760Z,981.58
2016-12-22T11:24:51.752Z,981.59
2016-12-22T11:25:51.752Z,981.58
2016-12-22T11:26:51.744Z,981.57
2016-12-22T11:27:51.744Z,981.6
2016-12-22T11:28:51.739Z,981.58
2016-12-22T11:29:51.736Z,981.53
2016-12-22T11:30:51.732Z,981.59
2016-12-22T11:31:51.740Z,981.6
2016-12-22T11:32:51.728Z,981.6
2016-12-22T11:33:51.716Z,981.59
2016-12-22T11:34:51.720Z,981.62
2016-12-22T11:35:51.716Z,981.57
2016-12-22T11:36:51.708Z,981.59
2016-12-22T11:37:51.708Z,981.63
2016-12-22T11:38:51.704Z,981.64
2016-12-22T11:39:51.697Z,981.62
2016-12-22T11:40:51.696Z,981.62
2016-12-22T11:41:51.689Z,981.62
2016-12-22T11:42:51.689Z,981.6
2016-12-22T11:43:51.689Z,981.66
2016-12-22T11:44:51.680Z,981.62
2016-12-22T11:45:51.681Z,981.62
2016-12-22T11:46:51.677Z,981.62
2016-12-22T11:47:51.673Z,981.65
2016-12-22T11:48:51.665Z,981.63
2016-12-22T11:49:51.665Z,981.6
2016-12-22T11:50:51.661Z,981.58
2016-12-22T11:51:51.657Z,981.6
2016-12-22T11:52:51.655Z,981.59
2016-12-22T11:53:51.653Z,981.57
2016-12-22T11:54:51.649Z,981.59
2016-12-22T11:55:51.641Z,981.52
2016-12-22T11:56:51.642Z,981.48
2016-12-22T11:57:51.637Z,981.51
2016-12-22T11:58:51.634Z,981.5
2016-12-22T11:59:51.626Z,981.55
2016-12-22T12:00:51.629Z,981.46
2016-12-22T12:01:51.626Z,981.46
2016-12-22T12:02:51.622Z,981.46
2016-12-22T12:03:51.618Z,981.46
2016-12-22T12:04:51.614Z,981.46
2016-12-22T12:05:51.610Z,981.45
2016-12-22T12:06:51.605Z,981.46
2016-12-22T12:07:51.598Z,981.47
2016-12-22T12:08:51.604Z,981.47
2016-12-22T12:09:51.599Z,981.49
2016-12-22T12:10:51.594Z,981.46
2016-12-22T12:11:51.590Z,981.47
2016-12-22T12:12:51.586Z,981.48
2016-12-22T12:13:51.580Z,981.45
2016-12-22T12:14:51.578Z,981.47
2016-12-22T12:15:51.578Z,981.48
2016-12-22T12:16:51.570Z,981.44
2016-12-22T12:17:51.570Z,981.48
2016-12-22T12:18:51.566Z,981.46
2016-12-22T12:19:51.562Z,981.46
2016-12-22T12:20:51.559Z,981.43
2016-12-22T12:21:51.555Z,981.46
2016-12-22T12:22:51.550Z,981.48
2016-12-22T12:23:51.551Z,981.46
2016-12-22T12:24:51.543Z,981.49
2016-12-22T12:25:51.543Z,981.47
2016-12-22T12:26:51.539Z,981.49
2016-12-22T12:27:51.535Z,981.49
2016-12-22T12:28:51.531Z,981.51
2016-12-22T12:29:51.527Z,981.51
2016-12-22T12:30:51.527Z,981.5
2016-12-22T12:31:51.519Z,981.5
2016-12-22T12:32:51.516Z,981.51
2016-12-22T12:33:51.515Z,981.52
2016-12-22T12:34:51.511Z,981.53